Terminal Aerodrome Forecast
Issued by NWS

Home | Current Version | Previous Version | Text Only | Print | Product List | Glossary Off
Versions: 1 2 3 4 5 6 7 8 9 10 11 12 13 14 15 16 17 18 19 20 21 22

000
FTUS43 KICT 190547
TAFCNU
TAF
KCNU 190547Z 1906/2006 17007KT P6SM OVC008
     FM190800 17007KT 5SM BR OVC005
     FM191000 16007KT 2SM BR OVC002
     FM191700 16005KT 4SM BR OVC008
     FM192000 15007KT P6SM OVC013=

USA.gov is the U.S. government's official web portal to all federal, state and local government web resources and services.